°C

Conditions at local time : on    Forecast:

Nearby METAR Reports

EGKA - Shoreham-By-Sea, United Kingdom
Distance from station: ENE 4mi, 6km
Updated: Wed, 20-Mar-2019 11:20am GMT
Partly Cloudy
Partly Cloudy
 Wind from W
Wind: W 9 mph , 15 km/h
Temperature: 14°C
Dew Point: 11°C
Humidity: 82%
Barometer: 1033 hPa
Clouds: Partly Cloudy
Visibility: 6 miles , 10 km
Cloud details: Few Clouds 366 m
Partly Cloudy 518 m
2019/03/20 11:20 EGKA 201120Z 26008KT 9999 FEW012 SCT017 14/11 Q1033
EGKK - London/Gatwick A, United Kingdom
Distance from station: NNE 24mi, 39km
Updated: Wed, 20-Mar-2019 11:20am GMT
Mostly Cloudy
Mostly Cloudy
 Wind from SW
Wind: SW 8 mph , 13 km/h
Temperature: 11°C
Dew Point: 8°C
Humidity: 82%
Barometer: 1033 hPa
Clouds: Mostly Cloudy
Visibility: 6 miles , 10 km
Cloud details: Mostly Cloudy 427 m
2019/03/20 11:20 EGKK 201120Z 23007KT 9999 BKN014 11/08 Q1033
 
EGLF - Farnborough, United Kingdom
Distance from station: NNW 37mi, 59km
Updated: Wed, 20-Mar-2019 11:20am GMT
Overcast
Overcast
 Wind from WSW
Wind: WSW 12 mph , 19 km/h
Temperature: 11°C
Dew Point: 8°C
Humidity: 82%
Barometer: 1033 hPa
Clouds: Overcast
Visibility: 6 miles , 10 km
Cloud details: Overcast 335 m
2019/03/20 11:20 EGLF 201120Z AUTO 24010KT 200V270 9999 OVC011/// 11/08 Q1033
EGVO - Odiham Raf, United Kingdom
Distance from station: NW 38mi, 61km
Updated: Wed, 20-Mar-2019 10:50am GMT
Overcast
Overcast
 Wind from SW
Wind: SW 12 mph , 19 km/h
Temperature: 10°C
Wind Chill: 7°C
Dew Point: 8°C
Humidity: 88%
Barometer: 1033 hPa
Clouds: Overcast
Visibility: 6 miles , 10 km
Cloud details: Overcast 305 m
2019/03/20 10:50 EGVO 201050Z 23010KT 9999 OVC010 10/08 Q1033 GRN NOSIG